Time;durP1;ratioP1;P1;durP2;ratioP2;P2;SDS_P1;SDS_P2;PMS_P1;PMS_P2;Temp;Humidity;BMP_temperature;BMP_pressure;BME280_temperature;BME280_humidity;BME280_pressure;Samples;Min_cycle;Max_cycle;Signal;HPM_P1;HPM_P2
2023/12/05 00:00:32;;;;;;;24.53;16.43;;;;;;;2.12;100.00;99704.22;5096634;28;20123;-57
2023/12/05 00:02:57;;;;;;;23.50;16.73;;;;;;;2.14;100.00;99699.72;5114802;28;20479;-57
2023/12/05 00:05:25;;;;;;;28.87;17.53;;;;;;;2.16;100.00;99703.13;5114679;28;20031;-57
2023/12/05 00:07:50;;;;;;;23.75;17.20;;;;;;;2.16;100.00;99700.50;5114852;28;20446;-57
2023/12/05 00:10:18;;;;;;;28.90;18.60;;;;;;;2.18;100.00;99700.44;5102932;28;20041;-57
2023/12/05 00:12:44;;;;;;;25.75;17.65;;;;;;;2.16;100.00;99692.63;5106027;28;20426;-57
2023/12/05 00:15:09;;;;;;;23.77;17.37;;;;;;;2.18;100.00;99696.06;5101859;28;20023;-57
2023/12/05 00:17:35;;;;;;;29.77;16.80;;;;;;;2.19;100.00;99705.59;5103516;28;20016;-57
2023/12/05 00:20:00;;;;;;;26.85;17.20;;;;;;;2.18;100.00;99690.81;5106777;28;20020;-57
2023/12/05 00:22:27;;;;;;;27.75;18.73;;;;;;;2.18;100.00;99685.56;5107072;28;20033;-57
2023/12/05 00:24:52;;;;;;;28.33;19.05;;;;;;;2.20;100.00;99688.09;5111901;28;20498;-57
2023/12/05 00:27:22;;;;;;;26.52;18.83;;;;;;;2.20;100.00;99682.84;5100618;28;20016;-57
2023/12/05 00:29:48;;;;;;;25.63;17.77;;;;;;;2.23;100.00;99691.41;5113667;28;20026;-57
2023/12/05 00:32:14;;;;;;;27.83;18.47;;;;;;;2.24;100.00;99690.50;5114271;28;20020;-58
2023/12/05 00:34:39;;;;;;;26.70;18.27;;;;;;;2.27;100.00;99694.75;5098567;28;20034;-57
2023/12/05 00:37:05;;;;;;;25.90;17.33;;;;;;;2.27;100.00;99687.75;5114816;28;20023;-57
2023/12/05 00:39:30;;;;;;;26.10;17.83;;;;;;;2.29;100.00;99679.78;5114124;28;20080;-57
2023/12/05 00:41:56;;;;;;;22.95;17.30;;;;;;;2.31;100.00;99688.44;5113760;28;20549;-57
2023/12/05 00:44:21;;;;;;;24.88;18.02;;;;;;;2.30;100.00;99681.50;5111991;28;20104;-57
2023/12/05 00:46:47;;;;;;;27.05;19.02;;;;;;;2.32;100.00;99689.28;5100324;28;20020;-57
2023/12/05 00:49:14;;;;;;;27.30;17.63;;;;;;;2.32;100.00;99681.41;5113673;28;20039;-57
2023/12/05 00:51:40;;;;;;;24.50;17.13;;;;;;;2.31;100.00;99683.19;5113275;28;20023;-58
2023/12/05 00:54:05;;;;;;;25.35;17.65;;;;;;;2.29;100.00;99679.78;5107900;28;20015;-58
2023/12/05 00:56:31;;;;;;;26.07;17.77;;;;;;;2.32;100.00;99679.63;5105316;28;20027;-57
2023/12/05 00:58:56;;;;;;;26.08;17.55;;;;;;;2.31;100.00;99685.81;5113756;28;20016;-57
2023/12/05 01:01:24;;;;;;;25.13;17.65;;;;;;;2.25;100.00;99675.63;5112887;28;20403;-57
2023/12/05 01:03:51;;;;;;;23.67;17.88;;;;;;;2.34;100.00;99685.66;5104053;28;20069;-57
2023/12/05 01:06:17;;;;;;;27.17;17.90;;;;;;;2.34;100.00;99683.03;5113547;28;20154;-58
2023/12/05 01:08:43;;;;;;;36.35;17.58;;;;;;;2.34;100.00;99683.03;5105339;28;20374;-57
2023/12/05 01:11:11;;;;;;;26.20;17.38;;;;;;;2.36;100.00;99682.97;5097426;28;20110;-57
2023/12/05 01:13:36;;;;;;;24.63;16.80;;;;;;;2.37;100.00;99676.81;5113280;28;20108;-58
2023/12/05 01:16:03;;;;;;;32.07;19.80;;;;;;;2.32;100.00;99666.50;5099160;28;20050;-57
2023/12/05 01:18:31;;;;;;;26.10;17.90;;;;;;;2.34;100.00;99667.31;5113027;28;20024;-58
2023/12/05 01:20:59;;;;;;;27.40;19.00;;;;;;;2.34;100.00;99661.22;5102485;28;20036;-57
2023/12/05 01:23:24;;;;;;;25.73;18.60;;;;;;;2.41;100.00;99673.09;5110886;28;20012;-58
2023/12/05 01:25:49;;;;;;;24.15;16.58;;;;;;;2.37;100.00;99656.66;5112978;28;20366;-57
2023/12/05 01:28:15;;;;;;;25.77;17.80;;;;;;;2.43;100.00;99672.09;5102231;28;20024;-58
2023/12/05 01:30:41;;;;;;;26.05;16.75;;;;;;;2.45;100.00;99665.00;5112768;28;21243;-57
2023/12/05 01:33:07;;;;;;;23.13;16.77;;;;;;;2.42;100.00;99665.16;5112354;28;20106;-57
2023/12/05 01:35:32;;;;;;;25.67;17.27;;;;;;;2.47;100.00;99671.03;5102637;28;20111;-58
2023/12/05 01:37:58;;;;;;;26.52;17.92;;;;;;;2.48;100.00;99672.72;5113119;28;20073;-58
2023/12/05 01:40:23;;;;;;;27.00;18.60;;;;;;;2.48;100.00;99672.72;5112953;28;20062;-58
2023/12/05 01:42:49;;;;;;;23.38;17.05;;;;;;;2.46;100.00;99664.06;5112400;28;20065;-57
2023/12/05 01:45:14;;;;;;;26.08;17.30;;;;;;;2.49;100.00;99666.56;5112091;28;20027;-57
2023/12/05 01:47:41;;;;;;;26.33;17.77;;;;;;;2.47;100.00;99662.28;5100904;28;20486;-58
2023/12/05 01:50:22;;;;;;;27.27;18.38;;;;;;;2.43;100.00;99660.75;5112425;28;20491;-57
2023/12/05 01:52:57;;;;;;;27.38;18.02;;;;;;;2.50;100.00;99673.53;5101694;28;20391;-57
2023/12/05 01:55:24;;;;;;;23.15;17.25;;;;;;;2.54;100.00;99673.38;5112180;28;20027;-57
2023/12/05 01:57:51;;;;;;;24.23;16.40;;;;;;;2.54;100.00;99676.00;5111762;28;20438;-58
2023/12/05 02:00:17;;;;;;;31.17;17.90;;;;;;;2.51;100.00;99677.00;5099354;28;20027;-57
2023/12/05 02:02:43;;;;;;;26.45;17.33;;;;;;;2.52;100.00;99675.22;5112753;28;20012;-57
2023/12/05 02:05:10;;;;;;;30.05;18.83;;;;;;;2.57;100.00;99683.72;5098245;28;20372;-57
2023/12/05 02:07:38;;;;;;;28.00;18.17;;;;;;;2.56;100.00;99685.50;5112410;28;20043;-57
2023/12/05 02:10:06;;;;;;;29.17;18.38;;;;;;;2.54;100.00;99687.34;5112513;28;20038;-57
2023/12/05 02:12:32;;;;;;;34.20;20.02;;;;;;;2.58;100.00;99693.28;5082033;28;20085;-57
2023/12/05 02:14:59;;;;;;;33.55;18.75;;;;;;;2.56;100.00;99680.25;5111747;27;20027;-57
2023/12/05 02:17:54;;;;;;;31.70;20.10;;;;;;;2.57;100.00;99678.47;5111826;28;20024;-57
2023/12/05 02:20:44;;;;;;;27.63;17.95;;;;;;;2.63;100.00;99680.78;5111619;28;20055;-57
2023/12/05 02:23:47;;;;;;;27.57;18.37;;;;;;;2.65;100.00;99684.19;5101017;28;20071;-57
2023/12/05 02:26:41;;;;;;;30.67;17.63;;;;;;;2.66;100.00;99678.00;5109831;28;20032;-57
2023/12/05 02:29:07;;;;;;;27.67;17.42;;;;;;;2.68;100.00;99681.41;5098645;28;20054;-57
2023/12/05 02:31:32;;;;;;;30.38;19.27;;;;;;;2.67;100.00;99680.53;5100788;28;20020;-57
2023/12/05 02:33:59;;;;;;;27.25;17.70;;;;;;;2.66;100.00;99678.00;5098546;28;20031;-57
2023/12/05 02:37:01;;;;;;;27.55;17.95;;;;;;;2.68;100.00;99678.78;5111306;28;20028;-57
2023/12/05 02:39:45;;;;;;;26.80;18.07;;;;;;;2.66;100.00;99673.59;5110424;28;20027;-57
2023/12/05 02:42:14;;;;;;;29.23;18.73;;;;;;;2.69;100.00;99675.22;5110925;28;20039;-57
2023/12/05 02:44:44;;;;;;;25.13;17.65;;;;;;;2.63;100.00;99671.13;5107896;28;20515;-58
2023/12/05 02:47:13;;;;;;;27.98;18.50;;;;;;;2.71;100.00;99670.75;5096044;28;20031;-57
2023/12/05 02:49:39;;;;;;;28.17;18.05;;;;;;;2.71;100.00;99676.84;5111323;28;20399;-57
2023/12/05 02:52:05;;;;;;;29.88;18.98;;;;;;;2.72;100.00;99672.44;5111397;28;20462;-57
2023/12/05 02:54:30;;;;;;;29.00;19.77;;;;;;;2.70;100.00;99669.88;5111006;28;20045;-57
2023/12/05 02:56:56;;;;;;;27.00;19.55;;;;;;;2.70;100.00;99666.41;5111002;28;20080;-57
2023/12/05 02:59:21;;;;;;;26.88;18.35;;;;;;;2.72;100.00;99670.66;5111185;28;20076;-57
2023/12/05 03:01:49;;;;;;;28.45;19.10;;;;;;;2.67;100.00;99653.44;5111631;28;20031;-57
2023/12/05 03:04:14;;;;;;;24.60;17.15;;;;;;;2.71;100.00;99655.84;5101377;28;20012;-57
2023/12/05 03:06:40;;;;;;;29.70;19.40;;;;;;;2.71;100.00;99653.22;5098411;28;20168;-57
2023/12/05 03:09:05;;;;;;;25.25;18.30;;;;;;;2.72;100.00;99649.66;5111430;28;20758;-57
2023/12/05 03:11:33;;;;;;;29.30;19.45;;;;;;;2.75;100.00;99656.53;5098533;28;20026;-57
2023/12/05 03:13:59;;;;;;;28.02;20.00;;;;;;;2.77;100.00;99662.56;5111127;28;20041;-57
2023/12/05 03:16:27;;;;;;;30.08;19.80;;;;;;;2.76;100.00;99652.97;5110272;28;20020;-57
2023/12/05 03:18:52;;;;;;;30.00;19.20;;;;;;;2.78;100.00;99652.91;5111395;28;20019;-57
2023/12/05 03:21:18;;;;;;;31.30;20.30;;;;;;;2.80;100.00;99657.16;5098207;28;20383;-57
2023/12/05 03:23:44;;;;;;;31.13;20.48;;;;;;;2.78;100.00;99650.28;5097512;28;20042;-57
2023/12/05 03:26:19;;;;;;;30.25;19.50;;;;;;;2.81;100.00;99650.97;5100514;28;20028;-57
2023/12/05 03:28:45;;;;;;;33.40;19.83;;;;;;;2.75;100.00;99646.03;5108461;28;20027;-57
2023/12/05 03:31:10;;;;;;;31.42;20.70;;;;;;;2.76;100.00;99642.47;5110458;28;20027;-57
2023/12/05 03:33:37;;;;;;;30.88;18.42;;;;;;;2.78;100.00;99642.41;5110845;28;21044;-57
2023/12/05 03:36:02;;;;;;;29.58;20.30;;;;;;;2.84;100.00;99655.22;5102030;28;20379;-57
2023/12/05 03:38:28;;;;;;;29.73;19.20;;;;;;;2.85;100.00;99656.91;5110678;28;20034;-57
2023/12/05 03:40:53;;;;;;;30.67;19.90;;;;;;;2.86;100.00;99663.88;5102906;28;20015;-57
2023/12/05 03:43:22;;;;;;;32.28;20.13;;;;;;;2.86;100.00;99664.75;5110845;28;20020;-57
2023/12/05 03:45:47;;;;;;;31.40;20.23;;;;;;;2.86;100.00;99669.16;5110249;28;20110;-57
2023/12/05 03:48:13;;;;;;;34.63;21.15;;;;;;;2.89;100.00;99661.09;5110849;28;20490;-57
2023/12/05 03:50:38;;;;;;;30.70;19.95;;;;;;;2.89;100.00;99675.09;5104258;28;20554;-57
2023/12/05 03:53:04;;;;;;;31.13;19.60;;;;;;;2.87;100.00;99671.69;5110273;28;20383;-57
2023/12/05 03:55:32;;;;;;;30.77;19.98;;;;;;;2.87;100.00;99665.59;5110214;28;20036;-57
2023/12/05 03:57:58;;;;;;;31.70;20.33;;;;;;;2.93;100.00;99675.78;5096603;28;20023;-57
2023/12/05 04:00:23;;;;;;;32.03;21.02;;;;;;;2.92;100.00;99685.44;5096774;28;20024;-57
2023/12/05 04:02:48;;;;;;;31.48;20.67;;;;;;;2.94;100.00;99674.84;5100294;28;20015;-57
2023/12/05 04:05:14;;;;;;;33.10;21.25;;;;;;;2.89;100.00;99674.25;5110042;28;20106;-57
2023/12/05 04:07:41;;;;;;;33.53;21.67;;;;;;;2.93;100.00;99686.28;5102263;28;20050;-57
2023/12/05 04:10:08;;;;;;;35.25;22.38;;;;;;;2.96;100.00;99688.75;5101099;28;20023;-57
2023/12/05 04:12:34;;;;;;;36.45;21.85;;;;;;;2.92;100.00;99690.69;5110426;28;20024;-58
2023/12/05 04:14:59;;;;;;;34.90;21.98;;;;;;;2.97;100.00;99695.69;5109792;28;20035;-58
2023/12/05 04:17:24;;;;;;;31.83;20.50;;;;;;;2.98;100.00;99702.66;5107574;28;20031;-58
2023/12/05 04:19:50;;;;;;;33.63;20.70;;;;;;;2.98;100.00;99697.41;5110059;28;20031;-58
2023/12/05 04:22:15;;;;;;;34.95;21.73;;;;;;;3.01;100.00;99701.66;5102446;28;20034;-58
2023/12/05 04:24:41;;;;;;;34.75;22.20;;;;;;;2.99;100.00;99700.88;5110604;28;20407;-58
2023/12/05 04:27:06;;;;;;;32.22;21.77;;;;;;;3.01;100.00;99705.13;5110519;28;20036;-58
2023/12/05 04:29:32;;;;;;;36.90;22.92;;;;;;;3.01;100.00;99699.03;5110174;28;20106;-58
2023/12/05 04:31:59;;;;;;;33.88;21.88;;;;;;;2.99;100.00;99700.88;5100132;28;20031;-58
2023/12/05 04:34:27;;;;;;;34.10;21.33;;;;;;;3.02;100.00;99703.34;5100731;28;20040;-58
2023/12/05 04:36:53;;;;;;;35.90;23.70;;;;;;;3.03;100.00;99702.41;5114195;28;20027;-58
2023/12/05 04:39:19;;;;;;;32.85;21.08;;;;;;;3.02;100.00;99703.34;5105466;28;20108;-58
2023/12/05 04:41:44;;;;;;;37.00;22.80;;;;;;;2.99;100.00;99708.75;5114254;28;20391;-58
2023/12/05 04:44:10;;;;;;;35.03;21.98;;;;;;;3.02;100.00;99709.44;5103091;28;20026;-58
2023/12/05 04:46:38;;;;;;;35.25;21.63;;;;;;;3.02;100.00;99717.31;5113230;28;20023;-57
2023/12/05 04:49:05;;;;;;;35.25;22.35;;;;;;;3.02;100.00;99709.44;5098570;28;20375;-58
2023/12/05 04:51:30;;;;;;;40.28;23.25;;;;;;;3.04;100.00;99712.84;5100088;28;20027;-58
2023/12/05 04:53:55;;;;;;;34.15;21.73;;;;;;;3.06;100.00;99724.16;5113690;28;20026;-58
2023/12/05 04:56:23;;;;;;;34.35;21.80;;;;;;;3.05;100.00;99729.47;5113377;28;20745;-58
2023/12/05 04:58:49;;;;;;;35.53;22.92;;;;;;;3.05;100.00;99724.19;5113723;28;20031;-58
2023/12/05 05:01:15;;;;;;;36.97;23.67;;;;;;;3.05;100.00;99725.06;5112927;28;20399;-58
2023/12/05 05:03:40;;;;;;;33.85;21.83;;;;;;;3.06;100.00;99724.16;5100093;28;20020;-58
2023/12/05 05:06:06;;;;;;;34.35;22.23;;;;;;;3.08;100.00;99729.31;5113344;28;20047;-57
2023/12/05 05:08:31;;;;;;;36.47;22.17;;;;;;;3.09;100.00;99733.63;5113984;28;20479;-58
2023/12/05 05:10:57;;;;;;;39.25;22.42;;;;;;;3.05;100.00;99724.19;5113185;28;20400;-57
2023/12/05 05:13:22;;;;;;;34.53;21.92;;;;;;;3.11;100.00;99730.00;5113681;28;20387;-58
2023/12/05 05:15:47;;;;;;;37.05;22.63;;;;;;;3.11;100.00;99727.38;5112944;28;20019;-57
2023/12/05 05:18:13;;;;;;;35.30;22.65;;;;;;;3.12;100.00;99728.25;5113055;28;20443;-58
2023/12/05 05:20:38;;;;;;;35.80;22.98;;;;;;;3.15;100.00;99734.19;5113756;28;20072;-58
2023/12/05 05:23:06;;;;;;;35.20;22.13;;;;;;;3.09;100.00;99726.63;5105566;28;20043;-58
2023/12/05 05:25:31;;;;;;;36.42;23.17;;;;;;;3.15;100.00;99733.34;5113246;28;20027;-58
2023/12/05 05:27:57;;;;;;;34.55;21.50;;;;;;;3.16;100.00;99737.66;5113426;28;20028;-58
2023/12/05 05:30:22;;;;;;;35.17;21.80;;;;;;;3.10;100.00;99730.94;5101523;28;20023;-58
2023/12/05 05:32:50;;;;;;;32.78;20.85;;;;;;;3.16;100.00;99740.28;5113196;28;20032;-58
2023/12/05 05:35:15;;;;;;;32.47;20.92;;;;;;;3.17;100.00;99742.81;5101350;28;20391;-58
2023/12/05 05:37:41;;;;;;;32.10;20.75;;;;;;;3.15;100.00;99742.06;5104560;28;20028;-58
2023/12/05 05:40:07;;;;;;;32.72;21.05;;;;;;;3.18;100.00;99751.56;5112927;28;20027;-57
2023/12/05 05:42:33;;;;;;;32.72;20.95;;;;;;;3.16;100.00;99741.13;5113165;28;20012;-58
2023/12/05 05:44:58;;;;;;;31.92;21.60;;;;;;;3.11;100.00;99732.63;5108330;28;20084;-58
2023/12/05 05:47:24;;;;;;;31.15;21.02;;;;;;;3.19;100.00;99745.38;5099368;28;20030;-58
2023/12/05 05:49:49;;;;;;;32.47;20.70;;;;;;;3.19;100.00;99748.84;5099831;28;20097;-58
2023/12/05 05:52:15;;;;;;;38.13;22.87;;;;;;;3.20;100.00;99749.69;5112484;28;20033;-58
2023/12/05 05:54:40;;;;;;;34.55;22.08;;;;;;;3.20;100.00;99749.69;5101243;28;20062;-58
2023/12/05 05:57:06;;;;;;;33.22;21.55;;;;;;;3.23;100.00;99751.31;5112614;28;20126;-58
2023/12/05 05:59:31;;;;;;;36.45;22.25;;;;;;;3.21;100.00;99751.41;5102521;28;20068;-58
2023/12/05 06:01:57;;;;;;;34.80;22.00;;;;;;;3.20;100.00;99744.44;5083128;28;20425;-58
2023/12/05 06:04:22;;;;;;;33.55;20.80;;;;;;;3.23;100.00;99754.78;5111609;28;20020;-58
2023/12/05 06:06:47;;;;;;;32.38;21.13;;;;;;;3.22;100.00;99754.88;5111383;28;20042;-58
2023/12/05 06:09:14;;;;;;;32.83;21.73;;;;;;;3.21;100.00;99748.78;5112638;28;20031;-58
2023/12/05 06:11:39;;;;;;;38.30;22.27;;;;;;;3.23;100.00;99756.56;5111839;28;20022;-58
2023/12/05 06:14:05;;;;;;;35.95;23.20;;;;;;;3.24;100.00;99755.66;5112420;28;20111;-58
2023/12/05 06:16:30;;;;;;;32.95;21.25;;;;;;;3.24;100.00;99759.13;5110867;28;20020;-58
2023/12/05 06:18:55;;;;;;;35.47;20.95;;;;;;;3.17;100.00;99747.22;5097819;28;20084;-58
2023/12/05 06:21:21;;;;;;;35.90;21.13;;;;;;;3.24;100.00;99761.78;5111900;28;20027;-58
2023/12/05 06:23:46;;;;;;;34.65;20.80;;;;;;;3.20;100.00;99757.56;5099507;28;20043;-58
2023/12/05 06:26:12;;;;;;;34.55;21.02;;;;;;;3.26;100.00;99770.41;5099201;28;20062;-58
2023/12/05 06:28:37;;;;;;;33.88;20.40;;;;;;;3.27;100.00;99777.38;5112031;28;20018;-58
2023/12/05 06:31:03;;;;;;;34.38;21.52;;;;;;;3.19;100.00;99764.63;5097827;28;20024;-58
2023/12/05 06:33:29;;;;;;;32.42;20.13;;;;;;;3.29;100.00;99791.28;5099797;28;20043;-58
2023/12/05 06:35:54;;;;;;;31.55;20.83;;;;;;;3.28;100.00;99781.69;5111707;28;20100;-58
2023/12/05 06:38:19;;;;;;;34.40;21.27;;;;;;;3.28;100.00;99788.72;5111427;28;20015;-58
2023/12/05 06:40:45;;;;;;;36.92;21.75;;;;;;;3.24;100.00;99782.78;5111610;28;20016;-58
2023/12/05 06:43:10;;;;;;;36.22;21.65;;;;;;;3.30;100.00;99794.78;5111666;28;20483;-58
2023/12/05 06:45:35;;;;;;;38.60;21.85;;;;;;;3.30;100.00;99797.41;5099443;28;20035;-58
2023/12/05 06:48:01;;;;;;;36.30;22.00;;;;;;;3.30;100.00;99800.03;5111225;28;20353;-58
2023/12/05 06:50:27;;;;;;;38.08;21.73;;;;;;;3.30;100.00;99803.50;5109816;28;20054;-58
2023/12/05 06:52:57;;;;;;;33.30;20.67;;;;;;;3.30;100.00;99803.50;5111018;28;20027;-57
2023/12/05 06:55:25;;;;;;;35.58;22.15;;;;;;;3.32;100.00;99806.03;5110610;28;20059;-58
2023/12/05 06:57:51;;;;;;;37.60;21.15;;;;;;;3.31;100.00;99807.81;5108856;28;20080;-57
2023/12/05 07:00:18;;;;;;;36.97;22.25;;;;;;;3.34;100.00;99815.53;5101373;28;20031;-58
2023/12/05 07:02:43;;;;;;;35.60;21.88;;;;;;;3.34;100.00;99810.28;5109971;28;20165;-57
2023/12/05 07:05:09;;;;;;;37.08;22.17;;;;;;;3.35;100.00;99816.38;5110946;28;20524;-57
2023/12/05 07:07:35;;;;;;;37.78;21.73;;;;;;;3.38;100.00;99821.50;5111069;28;20047;-57
2023/12/05 07:10:00;;;;;;;38.33;22.95;;;;;;;3.36;100.00;99821.59;5100502;28;20019;-58
2023/12/05 07:12:26;;;;;;;34.78;20.67;;;;;;;3.38;100.00;99822.38;5112038;28;20345;-57
2023/12/05 07:14:51;;;;;;;34.22;20.73;;;;;;;3.38;100.00;99825.00;5097064;28;20032;-57
2023/12/05 07:17:18;;;;;;;35.42;20.77;;;;;;;3.40;100.00;99828.38;5098922;28;20027;-57
2023/12/05 07:19:43;;;;;;;37.10;21.92;;;;;;;3.39;100.00;99834.56;5110844;28;20106;-57
2023/12/05 07:22:09;;;;;;;35.25;20.38;;;;;;;3.26;100.00;99803.72;5100074;28;20111;-58
2023/12/05 07:24:35;;;;;;;33.00;21.15;;;;;;;3.42;100.00;99836.19;5110951;28;20137;-58
2023/12/05 07:27:00;;;;;;;35.40;19.33;;;;;;;3.41;100.00;99845.88;5110918;28;20026;-57
2023/12/05 07:29:26;;;;;;;36.55;20.50;;;;;;;3.38;100.00;99840.78;5109739;28;20047;-58
2023/12/05 07:31:51;;;;;;;36.28;19.75;;;;;;;3.43;100.00;99853.66;5098189;28;20114;-58
2023/12/05 07:34:17;;;;;;;35.50;21.27;;;;;;;3.44;100.00;99851.88;5110967;28;20027;-58
2023/12/05 07:36:42;;;;;;;36.75;20.23;;;;;;;3.44;100.00;99862.38;5110535;28;20089;-58
2023/12/05 07:39:09;;;;;;;37.20;21.85;;;;;;;3.44;100.00;99863.25;5102431;28;20040;-58
2023/12/05 07:41:35;;;;;;;33.17;19.77;;;;;;;3.45;100.00;99864.13;5110536;28;20031;-58
2023/12/05 07:44:01;;;;;;;39.17;20.92;;;;;;;3.41;100.00;99866.91;5097290;28;20425;-57
2023/12/05 07:46:26;;;;;;;35.08;20.92;;;;;;;3.38;100.00;99869.69;5101796;28;20030;-57
2023/12/05 07:48:52;;;;;;;39.90;21.65;;;;;;;3.41;100.00;99876.53;5110623;28;20408;-57
2023/12/05 07:51:17;;;;;;;37.20;20.75;;;;;;;3.39;100.00;99879.25;5110422;28;20024;-58
2023/12/05 07:53:46;;;;;;;39.40;20.42;;;;;;;3.37;100.00;99886.34;5110822;28;20549;-58
2023/12/05 07:56:12;;;;;;;40.13;21.33;;;;;;;3.39;100.00;99894.19;5103042;28;20072;-58
2023/12/05 07:58:38;;;;;;;37.80;22.50;;;;;;;3.39;100.00;99894.19;5109923;28;20020;-58
2023/12/05 08:01:03;;;;;;;35.47;20.17;;;;;;;3.33;100.00;99886.59;5110502;28;20081;-57
2023/12/05 08:03:30;;;;;;;38.83;21.13;;;;;;;3.33;100.00;99894.47;5099605;28;20188;-58
2023/12/05 08:05:55;;;;;;;37.85;21.40;;;;;;;3.38;100.00;99903.84;5096474;28;20069;-57
2023/12/05 08:08:21;;;;;;;38.88;21.02;;;;;;;3.39;100.00;99904.69;5086848;28;20024;-58
2023/12/05 08:10:48;;;;;;;36.22;21.63;;;;;;;3.34;100.00;99904.06;5093345;28;20030;-58
2023/12/05 08:13:13;;;;;;;37.30;21.15;;;;;;;3.37;100.00;99917.03;5094096;28;20373;-58
2023/12/05 08:15:39;;;;;;;41.17;22.70;;;;;;;3.31;100.00;99906.81;5093910;28;20066;-57
2023/12/05 08:18:04;;;;;;;40.90;23.30;;;;;;;3.33;100.00;99918.97;5091561;28;20446;-58
2023/12/05 08:20:30;;;;;;;36.15;21.77;;;;;;;3.35;100.00;99924.13;5082017;28;20151;-58
2023/12/05 08:22:55;;;;;;;40.22;22.25;;;;;;;3.28;100.00;99920.13;5093443;28;20016;-57
2023/12/05 08:25:23;;;;;;;43.80;23.42;;;;;;;3.25;100.00;99922.88;5095046;28;20027;-58
2023/12/05 08:27:49;;;;;;;42.08;22.67;;;;;;;3.17;100.00;99915.34;5085619;28;20016;-57
2023/12/05 08:30:14;;;;;;;39.25;21.77;;;;;;;3.25;100.00;99936.03;5084948;28;20027;-58
2023/12/05 08:32:40;;;;;;;40.72;22.55;;;;;;;3.20;100.00;99933.59;5091688;28;20085;-58
2023/12/05 08:35:09;;;;;;;38.38;21.38;;;;;;;3.24;100.00;99943.06;5092592;28;20115;-58
2023/12/05 08:37:34;;;;;;;40.72;22.60;;;;;;;3.23;100.00;99951.00;5092145;28;20094;-57
2023/12/05 08:39:59;;;;;;;35.17;21.13;;;;;;;3.21;100.00;99948.47;5092529;28;20023;-58
2023/12/05 08:42:27;;;;;;;41.75;21.83;;;;;;;3.24;100.00;99950.09;5088942;28;20031;-58
2023/12/05 08:44:53;;;;;;;35.65;21.38;;;;;;;3.25;100.00;99957.06;5091568;28;20028;-58
2023/12/05 08:47:18;;;;;;;42.30;22.90;;;;;;;3.22;100.00;99949.31;5088288;28;20040;-57
2023/12/05 08:49:43;;;;;;;39.08;21.25;;;;;;;3.24;100.00;99952.72;5092560;28;20024;-57
2023/12/05 08:52:09;;;;;;;40.15;22.25;;;;;;;3.23;100.00;99959.72;5089795;28;20051;-58
2023/12/05 08:54:37;;;;;;;37.45;21.58;;;;;;;3.19;100.00;99950.31;5072993;28;20030;-58
2023/12/05 08:57:02;;;;;;;37.33;21.98;;;;;;;3.19;100.00;99945.91;5090361;28;20039;-57
2023/12/05 08:59:28;;;;;;;42.38;23.83;;;;;;;3.25;100.00;99967.56;5091970;28;20480;-58
2023/12/05 09:01:53;;;;;;;38.95;21.80;;;;;;;3.20;100.00;99957.25;5093067;28;20028;-58
2023/12/05 09:04:18;;;;;;;39.92;22.27;;;;;;;3.23;100.00;99962.34;5091187;28;20028;-57
2023/12/05 09:06:44;;;;;;;39.92;22.65;;;;;;;3.20;100.00;99967.75;5103123;28;20063;-57
2023/12/05 09:09:09;;;;;;;43.63;21.92;;;;;;;3.21;100.00;99971.22;5107194;27;20020;-60
2023/12/05 09:11:36;;;;;;;39.63;21.30;;;;;;;3.20;100.00;99975.66;5100378;28;20030;-58
2023/12/05 09:14:01;;;;;;;37.17;20.60;;;;;;;3.22;100.00;99980.84;5113157;27;20043;-58
2023/12/05 09:16:27;;;;;;;38.67;21.33;;;;;;;3.23;100.00;99985.16;5111236;28;20131;-58
2023/12/05 09:18:52;;;;;;;41.38;21.65;;;;;;;3.23;100.00;99996.53;5112133;27;20027;-58
2023/12/05 09:21:20;;;;;;;39.10;23.30;;;;;;;3.21;100.00;99990.50;5099557;28;20031;-58
2023/12/05 09:23:45;;;;;;;41.63;20.48;;;;;;;3.21;100.00;99990.50;5112489;28;20502;-58
2023/12/05 09:26:13;;;;;;;36.88;21.85;;;;;;;3.24;100.00;99994.78;5098723;28;20032;-58
2023/12/05 09:28:39;;;;;;;36.00;19.75;;;;;;;3.24;100.00;100003.50;5102288;28;20020;-58
2023/12/05 09:31:04;;;;;;;39.58;22.27;;;;;;;3.25;100.00;99999.09;5102863;28;20028;-58
2023/12/05 09:33:29;;;;;;;45.03;21.98;;;;;;;3.26;100.00;100001.63;5094215;28;20083;-58
2023/12/05 09:35:55;;;;;;;48.75;22.27;;;;;;;3.30;100.00;100012.88;5102150;28;20383;-58
2023/12/05 09:38:20;;;;;;;40.45;21.58;;;;;;;3.27;100.00;100008.59;5112782;28;20020;-57
2023/12/05 09:40:47;;;;;;;45.85;23.52;;;;;;;3.28;100.00;100026.06;5109100;28;20050;-58
2023/12/05 09:43:14;;;;;;;38.03;21.80;;;;;;;3.25;100.00;100022.75;5094565;28;20128;-58
2023/12/05 09:45:43;;;;;;;41.53;22.52;;;;;;;3.22;100.00;100030.75;5094672;28;20024;-58
2023/12/05 09:48:11;;;;;;;41.92;21.27;;;;;;;3.26;100.00;100025.28;5112694;27;20023;-58
2023/12/05 09:50:37;;;;;;;34.30;20.38;;;;;;;3.29;100.00;100034.81;5096679;28;20073;-58
2023/12/05 09:53:04;;;;;;;38.53;21.85;;;;;;;3.24;100.00;100021.03;5099508;28;20038;-58
2023/12/05 09:55:30;;;;;;;41.10;21.02;;;;;;;3.26;100.00;100033.16;5112920;28;20062;-58
2023/12/05 09:57:57;;;;;;;38.92;20.33;;;;;;;3.19;100.00;100024.72;5098553;28;20452;-57
2023/12/05 10:00:23;;;;;;;41.90;20.63;;;;;;;3.27;100.00;100037.50;5098600;28;20031;-57
2023/12/05 10:02:51;;;;;;;40.78;22.40;;;;;;;3.18;100.00;100024.81;5112024;27;20088;-58
2023/12/05 10:05:20;;;;;;;34.88;20.45;;;;;;;3.26;100.00;100042.81;5098535;28;20516;-57
2023/12/05 10:07:46;;;;;;;40.53;20.17;;;;;;;3.26;100.00;100041.03;5111058;28;20035;-57
2023/12/05 10:10:13;;;;;;;37.28;20.73;;;;;;;3.22;100.00;100041.28;5112635;27;20076;-58
2023/12/05 10:12:40;;;;;;;38.78;20.40;;;;;;;3.27;100.00;100055.91;5083933;28;20047;-58
2023/12/05 10:15:08;;;;;;;40.55;21.08;;;;;;;3.26;100.00;100055.97;5111154;28;20489;-57
2023/12/05 10:17:35;;;;;;;40.47;21.60;;;;;;;3.26;100.00;100063.84;5112228;28;20053;-57
2023/12/05 10:20:00;;;;;;;43.30;21.02;;;;;;;3.28;100.00;100069.91;5111511;28;20015;-58
2023/12/05 10:22:26;;;;;;;43.75;21.85;;;;;;;3.29;100.00;100072.44;5111443;28;20367;-57
2023/12/05 10:24:54;;;;;;;39.65;21.55;;;;;;;3.30;100.00;100073.31;5109043;28;20448;-58
2023/12/05 10:27:20;;;;;;;38.45;20.88;;;;;;;3.23;100.00;100061.34;5109694;28;20026;-58
2023/12/05 10:29:45;;;;;;;45.60;21.73;;;;;;;3.23;100.00;100067.47;5111543;28;20023;-58
2023/12/05 10:32:12;;;;;;;41.00;22.40;;;;;;;3.26;100.00;100072.56;5111719;28;20593;-58
2023/12/05 10:34:45;;;;;;;41.30;22.17;;;;;;;3.26;100.00;100071.72;5106973;28;20020;-58
2023/12/05 10:37:10;;;;;;;41.70;21.33;;;;;;;3.26;100.00;100069.09;5111956;28;20055;-58
2023/12/05 10:39:36;;;;;;;37.95;21.45;;;;;;;3.26;100.00;100083.09;5106189;28;20055;-58
2023/12/05 10:42:01;;;;;;;41.63;21.17;;;;;;;3.22;100.00;100065.78;5085011;28;20026;-58
2023/12/05 10:44:27;;;;;;;43.20;21.88;;;;;;;3.30;100.00;100089.09;5111779;28;20424;-58
2023/12/05 10:47:01;;;;;;;37.95;20.90;;;;;;;3.28;100.00;100089.13;5111690;28;20055;-58
2023/12/05 10:49:26;;;;;;;40.90;21.17;;;;;;;3.29;100.00;100093.47;5097205;28;20043;-58
2023/12/05 10:51:51;;;;;;;33.80;20.00;;;;;;;3.32;100.00;100095.09;5099177;28;20117;-58
2023/12/05 10:54:17;;;;;;;29.17;16.50;;;;;;;3.31;100.00;100096.88;5112505;28;20031;-58
2023/12/05 10:56:56;;;;;;;29.23;18.35;;;;;;;3.32;100.00;100098.56;5101329;28;20084;-58
2023/12/05 10:59:27;;;;;;;33.60;18.45;;;;;;;3.31;100.00;100098.66;5098613;28;20030;-58
2023/12/05 11:01:56;;;;;;;30.95;16.52;;;;;;;3.28;100.00;100106.69;5108988;28;20031;-58
2023/12/05 11:04:25;;;;;;;27.85;15.93;;;;;;;3.26;100.00;100098.84;5102655;28;20057;-58
2023/12/05 11:06:52;;;;;;;23.48;14.95;;;;;;;3.26;100.00;100096.22;5090459;27;20040;-58
2023/12/05 11:09:18;;;;;;;26.58;16.40;;;;;;;3.30;100.00;100107.47;5103456;28;20024;-58
2023/12/05 11:11:46;;;;;;;25.70;15.52;;;;;;;3.34;100.00;100106.41;5111242;28;20016;-58
2023/12/05 11:14:15;;;;;;;27.88;16.25;;;;;;;3.37;100.00;100108.91;5110581;28;20030;-58